createdAt,value
2023-04-21T00:00:52.195Z,98962.14
2023-04-21T00:02:40.087Z,98961.59
2023-04-21T00:04:06.993Z,98952.90
2023-04-21T00:05:28.644Z,98962.02
2023-04-21T00:07:02.313Z,98961.64
2023-04-21T00:08:42.709Z,98964.39
2023-04-21T00:10:18.727Z,98964.00
2023-04-21T00:12:01.695Z,98967.61
2023-04-21T00:13:49.723Z,98968.86
2023-04-21T00:15:35.174Z,98966.36
2023-04-21T00:16:56.889Z,98965.60
2023-04-21T00:18:21.086Z,98963.71
2023-04-21T00:19:54.535Z,98961.17
2023-04-21T00:21:39.221Z,98958.65
2023-04-21T00:23:12.522Z,98965.68
2023-04-21T00:24:34.417Z,98962.67
2023-04-21T00:26:19.909Z,98954.53
2023-04-21T00:28:04.975Z,98963.20
2023-04-21T00:29:40.395Z,98960.31
2023-04-21T00:31:13.760Z,98959.77
2023-04-21T00:32:44.906Z,98954.95
2023-04-21T00:34:26.312Z,98957.70
2023-04-21T00:36:11.288Z,98959.16
2023-04-21T00:37:56.205Z,98958.32
2023-04-21T00:39:42.404Z,98958.34
2023-04-21T00:41:23.011Z,98956.17
2023-04-21T00:43:09.301Z,98959.14
2023-04-21T00:44:45.109Z,98947.64
2023-04-21T00:46:21.354Z,98958.63
2023-04-21T00:47:54.916Z,98950.81
2023-04-21T00:49:30.472Z,98955.05
2023-04-21T00:51:15.794Z,98953.61
2023-04-21T00:52:51.463Z,98951.45
2023-04-21T00:54:27.158Z,98948.37
2023-04-21T00:56:12.370Z,98950.58
2023-04-21T00:57:52.779Z,98943.67
2023-04-21T00:59:28.525Z,98945.65
2023-04-21T01:01:01.799Z,98945.95
2023-04-21T01:02:28.459Z,98945.81
2023-04-21T01:04:13.847Z,98946.09
2023-04-21T01:05:59.149Z,98947.89
2023-04-21T01:07:42.417Z,98947.69
2023-04-21T01:09:28.981Z,98947.06
2023-04-21T01:11:04.414Z,98945.21
2023-04-21T01:12:39.675Z,98944.83
2023-04-21T01:14:15.633Z,98929.95
2023-04-21T01:15:51.392Z,98940.18
2023-04-21T01:17:45.646Z,98941.88
2023-04-21T01:19:23.062Z,98940.17
2023-04-21T01:21:04.355Z,98941.29
2023-04-21T01:22:45.229Z,98940.21
2023-04-21T01:24:09.530Z,98940.73
2023-04-21T01:25:43.050Z,98942.34
2023-04-21T01:27:07.752Z,98945.83
2023-04-21T01:28:39.689Z,98946.84
2023-04-21T01:30:12.799Z,98945.84
2023-04-21T01:32:01.229Z,98946.91
2023-04-21T01:33:33.075Z,98942.67
2023-04-21T01:35:06.527Z,98942.78
2023-04-21T01:36:51.997Z,98946.14
2023-04-21T01:38:26.011Z,98944.73
2023-04-21T01:40:04.422Z,98941.98
2023-04-21T01:41:39.217Z,98938.84
2023-04-21T01:43:13.182Z,98941.35
2023-04-21T01:44:58.655Z,98937.23
2023-04-21T01:46:20.687Z,98938.38
2023-04-21T01:48:05.852Z,98934.63
2023-04-21T01:49:46.438Z,98936.05
2023-04-21T01:51:41.415Z,98934.48
2023-04-21T01:53:35.073Z,98936.50
2023-04-21T01:55:08.598Z,98932.82
2023-04-21T01:56:44.648Z,98934.77
2023-04-21T01:58:17.920Z,98936.79
2023-04-21T01:59:49.545Z,98936.64
2023-04-21T02:01:34.812Z,98936.77
2023-04-21T02:03:10.748Z,98931.65
2023-04-21T02:04:37.692Z,98935.77
2023-04-21T02:06:03.701Z,98935.63
2023-04-21T02:07:48.826Z,98932.64
2023-04-21T02:09:41.198Z,98936.73
2023-04-21T02:11:26.237Z,98936.84
2023-04-21T02:13:01.038Z,98937.58
2023-04-21T02:14:46.360Z,98934.98
2023-04-21T02:16:27.053Z,98934.31
2023-04-21T02:18:01.352Z,98936.42
2023-04-21T02:19:46.017Z,98934.45
2023-04-21T02:21:39.472Z,98935.14
2023-04-21T02:23:08.892Z,98935.69
2023-04-21T02:24:53.837Z,98941.24
2023-04-21T02:26:38.499Z,98940.21
2023-04-21T02:28:10.067Z,98932.50
2023-04-21T02:29:44.311Z,98936.41
2023-04-21T02:31:25.532Z,98939.97
2023-04-21T02:33:06.443Z,98940.84
2023-04-21T02:34:42.304Z,98941.48
2023-04-21T02:36:27.084Z,98941.73
2023-04-21T02:38:12.322Z,98939.72
2023-04-21T02:39:46.036Z,98939.02
2023-04-21T02:41:20.024Z,98921.20
2023-04-21T02:42:57.608Z,98937.20
2023-04-21T02:44:38.582Z,98935.35
2023-04-21T02:46:14.597Z,98930.34
2023-04-21T02:47:59.664Z,98932.79
2023-04-21T02:49:40.143Z,98930.05
2023-04-21T02:51:25.410Z,98929.04
2023-04-21T02:53:10.857Z,98928.93
2023-04-21T02:54:57.579Z,98929.16
2023-04-21T02:56:51.424Z,98933.36
2023-04-21T02:58:26.959Z,98931.20
2023-04-21T03:00:12.157Z,98928.59
2023-04-21T03:01:47.880Z,98936.77
2023-04-21T03:03:42.489Z,98936.13
2023-04-21T03:05:16.226Z,98930.05
2023-04-21T03:06:49.760Z,98931.16
2023-04-21T03:08:23.601Z,98934.04
2023-04-21T03:09:56.575Z,98930.20
2023-04-21T03:11:51.415Z,98930.35
2023-04-21T03:13:18.422Z,98933.46
2023-04-21T03:15:12.444Z,98930.91
2023-04-21T03:16:53.345Z,98933.58
2023-04-21T03:18:38.740Z,98933.62
2023-04-21T03:20:14.722Z,98936.92
2023-04-21T03:21:47.677Z,98939.03
2023-04-21T03:23:30.436Z,98931.13
2023-04-21T03:25:15.510Z,98936.18
2023-04-21T03:27:11.054Z,98936.57
2023-04-21T03:28:44.734Z,98935.90
2023-04-21T03:30:39.424Z,98937.40
2023-04-21T03:32:13.413Z,98933.77
2023-04-21T03:33:53.186Z,98935.02
2023-04-21T03:35:39.914Z,98921.63
2023-04-21T03:37:16.012Z,98935.27
2023-04-21T03:38:49.288Z,98932.09
2023-04-21T03:40:30.083Z,98934.13
2023-04-21T03:42:05.666Z,98930.59
2023-04-21T03:43:50.654Z,98936.83
2023-04-21T03:45:22.486Z,98936.59
2023-04-21T03:47:06.548Z,98935.38
2023-04-21T03:48:39.708Z,98936.36
2023-04-21T03:50:15.400Z,98935.19
2023-04-21T03:51:41.521Z,98935.42
2023-04-21T03:53:26.941Z,98933.73
2023-04-21T03:55:12.566Z,98939.55
2023-04-21T03:56:47.970Z,98932.82
2023-04-21T03:58:29.254Z,98936.80
2023-04-21T04:00:14.830Z,98936.47
2023-04-21T04:01:43.509Z,98934.73
2023-04-21T04:03:21.871Z,98936.77
2023-04-21T04:04:58.784Z,98934.95
2023-04-21T04:06:39.854Z,98937.68
2023-04-21T04:08:13.719Z,98939.81
2023-04-21T04:09:45.299Z,98941.65
2023-04-21T04:11:14.524Z,98939.96
2023-04-21T04:12:55.214Z,98942.59
2023-04-21T04:14:47.940Z,98941.28
2023-04-21T04:16:29.269Z,98940.94
2023-04-21T04:17:59.722Z,98944.02
2023-04-21T04:19:33.411Z,98944.09
2023-04-21T04:20:55.023Z,98940.38
2023-04-21T04:22:49.423Z,98944.98
2023-04-21T04:24:18.998Z,98943.17
2023-04-21T04:25:49.229Z,98947.18
2023-04-21T04:27:35.749Z,98947.52
2023-04-21T04:29:22.300Z,98943.81
2023-04-21T04:31:02.658Z,98948.20
2023-04-21T04:32:43.251Z,98945.98
2023-04-21T04:34:19.269Z,98947.91
2023-04-21T04:35:43.275Z,98935.66
2023-04-21T04:37:04.831Z,98944.65
2023-04-21T04:38:35.898Z,98946.08
2023-04-21T04:40:24.528Z,98945.80
2023-04-21T04:42:00.980Z,98945.70
2023-04-21T04:43:27.510Z,98942.01
2023-04-21T04:45:04.582Z,98944.87
2023-04-21T04:46:49.397Z,98941.33
2023-04-21T04:48:26.210Z,98946.22
2023-04-21T04:49:59.859Z,98946.05
2023-04-21T04:51:42.983Z,98948.33
2023-04-21T04:53:16.479Z,98934.35
2023-04-21T04:55:01.231Z,98948.74
2023-04-21T04:56:34.517Z,98950.95
2023-04-21T04:58:03.743Z,98954.50
2023-04-21T04:59:39.998Z,98952.92
2023-04-21T05:01:14.038Z,98943.91
2023-04-21T05:02:49.395Z,98948.33
2023-04-21T05:04:26.508Z,98958.48
2023-04-21T05:06:10.001Z,98950.89
2023-04-21T05:07:44.270Z,98952.74
2023-04-21T05:09:18.038Z,98953.68
2023-04-21T05:10:49.415Z,98957.12
2023-04-21T05:12:13.556Z,98958.54
2023-04-21T05:13:47.150Z,98954.28
2023-04-21T05:15:27.837Z,98953.48
2023-04-21T05:17:12.900Z,98955.29
2023-04-21T05:18:59.772Z,98961.61
2023-04-21T05:20:35.751Z,98960.16
2023-04-21T05:22:02.109Z,98960.33
2023-04-21T05:23:43.022Z,98958.96
2023-04-21T05:25:16.284Z,98961.70
2023-04-21T05:26:56.437Z,98962.58
2023-04-21T05:28:37.226Z,98961.60
2023-04-21T05:30:22.711Z,98960.95
2023-04-21T05:32:00.307Z,98961.12
2023-04-21T05:33:34.814Z,98966.33
2023-04-21T05:35:19.868Z,98964.09
2023-04-21T05:36:43.419Z,98966.15
2023-04-21T05:38:19.348Z,98960.52
2023-04-21T05:39:55.880Z,98965.08
2023-04-21T05:41:40.639Z,98967.23
2023-04-21T05:43:16.662Z,98972.27
2023-04-21T05:45:01.954Z,98971.84
2023-04-21T05:46:45.432Z,98970.58
2023-04-21T05:48:15.121Z,98970.48
2023-04-21T05:49:50.346Z,98973.61
2023-04-21T05:51:31.432Z,98971.42
2023-04-21T05:52:55.811Z,98969.68
2023-04-21T05:54:40.732Z,98973.59
2023-04-21T05:56:16.191Z,98970.11
2023-04-21T05:57:58.767Z,98970.23
2023-04-21T05:59:44.382Z,98966.55
2023-04-21T06:01:27.538Z,98968.66
2023-04-21T06:03:12.767Z,98967.41
2023-04-21T06:04:34.483Z,98969.38
2023-04-21T06:06:19.978Z,98965.45
2023-04-21T06:07:53.563Z,98965.90
2023-04-21T06:09:38.907Z,98965.95
2023-04-21T06:11:01.105Z,98965.74
2023-04-21T06:12:25.308Z,98965.62
2023-04-21T06:13:58.698Z,98966.92
2023-04-21T06:15:44.359Z,98970.72
2023-04-21T06:17:20.150Z,98952.30
2023-04-21T06:19:00.525Z,98962.25
2023-04-21T06:20:45.357Z,98951.15
2023-04-21T06:22:10.008Z,98962.27
2023-04-21T06:23:54.684Z,98962.15
2023-04-21T06:25:30.085Z,98961.83
2023-04-21T06:27:10.834Z,98958.42
2023-04-21T06:28:34.419Z,98958.02
2023-04-21T06:30:03.501Z,98962.96
2023-04-21T06:31:44.267Z,98966.06
2023-04-21T06:33:24.942Z,98963.40
2023-04-21T06:35:08.703Z,98950.20
2023-04-21T06:36:54.376Z,98960.16
2023-04-21T06:38:27.409Z,98963.98
2023-04-21T06:40:03.707Z,98963.82
2023-04-21T06:41:37.919Z,98964.96
2023-04-21T06:43:19.428Z,98959.77
2023-04-21T06:45:04.197Z,98964.34
2023-04-21T06:46:50.215Z,98968.60
2023-04-21T06:48:26.297Z,98966.84
2023-04-21T06:50:11.005Z,98968.48
2023-04-21T06:51:42.102Z,98963.43
2023-04-21T06:53:27.278Z,98966.42
2023-04-21T06:55:07.135Z,98955.27
2023-04-21T06:56:52.464Z,98967.23
2023-04-21T06:58:37.373Z,98967.52
2023-04-21T07:00:13.378Z,98967.25
2023-04-21T07:02:00.820Z,98968.15
2023-04-21T07:03:32.112Z,98967.90
2023-04-21T07:05:08.222Z,98967.90
2023-04-21T07:06:43.568Z,98970.86
2023-04-21T07:08:17.422Z,98971.98
2023-04-21T07:09:48.357Z,98968.20
2023-04-21T07:11:34.734Z,98974.13
2023-04-21T07:13:19.581Z,98971.50
2023-04-21T07:14:43.280Z,98966.46
2023-04-21T07:16:28.623Z,98964.96
2023-04-21T07:18:04.576Z,98962.65
2023-04-21T07:19:45.178Z,98964.67
2023-04-21T07:21:30.360Z,98957.16
2023-04-21T07:23:03.638Z,98963.42
2023-04-21T07:24:45.471Z,98966.23
2023-04-21T07:26:27.280Z,98968.14
2023-04-21T07:27:53.549Z,98968.09
2023-04-21T07:29:27.398Z,98966.62
2023-04-21T07:31:10.439Z,98964.56
2023-04-21T07:33:04.458Z,98966.77
2023-04-21T07:34:49.588Z,98964.50
2023-04-21T07:36:31.239Z,98956.11
2023-04-21T07:38:02.510Z,98963.88
2023-04-21T07:39:38.102Z,98962.80
2023-04-21T07:41:19.109Z,98966.11
2023-04-21T07:42:54.717Z,98968.94
2023-04-21T07:44:32.482Z,98967.58
2023-04-21T07:46:13.481Z,98971.40
2023-04-21T07:47:48.526Z,98964.37
2023-04-21T07:49:22.323Z,98969.02
2023-04-21T07:51:07.468Z,98966.56
2023-04-21T07:52:55.527Z,98966.02
2023-04-21T07:54:35.580Z,98964.38
2023-04-21T07:56:09.354Z,98958.52
2023-04-21T07:57:53.152Z,98965.02
2023-04-21T07:59:20.737Z,98965.27
2023-04-21T08:01:05.651Z,98964.21
2023-04-21T08:02:38.964Z,98958.44
2023-04-21T08:04:15.007Z,98962.67
2023-04-21T08:05:48.706Z,98963.88
2023-04-21T08:07:22.322Z,98960.08
2023-04-21T08:09:04.484Z,98956.05
2023-04-21T08:10:45.048Z,98956.98
2023-04-21T08:12:38.346Z,98956.44
2023-04-21T08:14:12.023Z,98956.67
2023-04-21T08:15:45.258Z,98955.66
2023-04-21T08:17:18.918Z,98956.46
2023-04-21T08:19:13.405Z,98955.75
2023-04-21T08:20:49.433Z,98959.46
2023-04-21T08:22:13.869Z,98961.15
2023-04-21T08:24:07.904Z,98957.90
2023-04-21T08:25:37.013Z,98958.41
2023-04-21T08:27:22.408Z,98960.26
2023-04-21T08:29:06.677Z,98960.94
2023-04-21T08:30:46.890Z,98959.61
2023-04-21T08:32:27.480Z,98960.00
2023-04-21T08:34:10.436Z,98956.19
2023-04-21T08:35:36.601Z,98955.85
2023-04-21T08:37:12.469Z,98957.33
2023-04-21T08:38:53.340Z,98961.31
2023-04-21T08:40:15.557Z,98958.48
2023-04-21T08:41:39.658Z,98961.88
2023-04-21T08:43:16.182Z,98959.74
2023-04-21T08:44:56.799Z,98961.38
2023-04-21T08:46:30.184Z,98961.39
2023-04-21T08:48:16.208Z,98965.20
2023-04-21T08:49:49.443Z,98963.91
2023-04-21T08:51:35.269Z,98963.86
2023-04-21T08:53:08.687Z,98966.88
2023-04-21T08:55:01.801Z,98961.48
2023-04-21T08:56:46.798Z,98964.78
2023-04-21T08:58:31.770Z,98963.06
2023-04-21T08:59:58.189Z,98962.08
2023-04-21T09:01:33.952Z,98958.70
2023-04-21T09:03:19.266Z,98957.18
2023-04-21T09:05:10.604Z,98954.98
2023-04-21T09:06:46.457Z,98953.33
2023-04-21T09:08:31.812Z,98950.77
2023-04-21T09:10:00.764Z,98952.52
2023-04-21T09:11:54.267Z,98944.58
2023-04-21T09:13:18.734Z,98947.35
2023-04-21T09:14:40.503Z,98951.00
2023-04-21T09:16:22.462Z,98950.64
2023-04-21T09:17:44.258Z,98949.86
2023-04-21T09:19:18.071Z,98947.95
2023-04-21T09:20:51.116Z,98945.45
2023-04-21T09:22:17.724Z,98942.71
2023-04-21T09:23:42.002Z,98942.29
2023-04-21T09:25:16.388Z,98936.63
2023-04-21T09:26:49.265Z,98938.09
2023-04-21T09:28:21.406Z,98936.54
2023-04-21T09:29:43.250Z,98936.80
2023-04-21T09:31:24.601Z,98931.65
2023-04-21T09:32:58.507Z,98938.02
2023-04-21T09:34:33.769Z,98935.84
2023-04-21T09:36:18.958Z,98937.91
2023-04-21T09:37:59.524Z,98934.05
2023-04-21T09:39:43.255Z,98934.98
2023-04-21T09:41:39.017Z,98934.49
2023-04-21T09:43:08.459Z,98926.98
2023-04-21T09:44:59.590Z,98932.73
2023-04-21T09:46:58.397Z,98931.73
2023-04-21T09:48:31.717Z,98935.64
2023-04-21T09:50:19.563Z,98934.60
2023-04-21T09:53:28.884Z,98936.27
2023-04-21T09:55:04.252Z,98934.89
2023-04-21T09:56:40.228Z,98934.38
2023-04-21T09:58:25.346Z,98935.53
2023-04-21T10:00:07.405Z,98928.38
2023-04-21T10:01:43.169Z,98922.30
2023-04-21T10:03:17.206Z,98925.73
2023-04-21T10:04:40.970Z,98928.86
2023-04-21T10:06:22.017Z,98919.38
2023-04-21T10:08:06.905Z,98913.98
2023-04-21T10:09:56.273Z,98910.59
2023-04-21T10:11:20.526Z,98917.59
2023-04-21T10:13:06.426Z,98914.59
2023-04-21T10:14:51.592Z,98920.09
2023-04-21T10:16:23.384Z,98913.40
2023-04-21T10:17:56.536Z,98915.19
2023-04-21T10:19:49.870Z,98912.27
2023-04-21T10:21:11.999Z,98908.06
2023-04-21T10:22:56.945Z,98906.90
2023-04-21T10:24:49.660Z,98905.85
2023-04-21T10:26:23.628Z,98904.02
2023-04-21T10:28:08.964Z,98905.64
2023-04-21T10:29:52.512Z,98904.27
2023-04-21T10:31:29.345Z,98903.36
2023-04-21T10:33:02.836Z,98900.83
2023-04-21T10:34:27.052Z,98900.23
2023-04-21T10:36:08.671Z,98901.23
2023-04-21T10:37:34.737Z,98901.80
2023-04-21T10:39:16.096Z,98900.10
2023-04-21T10:40:59.784Z,98899.00
2023-04-21T10:42:31.132Z,98897.47
2023-04-21T10:44:12.175Z,98894.97
2023-04-21T10:45:57.304Z,98893.48
2023-04-21T10:47:38.167Z,98886.55
2023-04-21T10:49:11.314Z,98890.07
2023-04-21T10:50:35.725Z,98889.21
2023-04-21T10:52:30.557Z,98891.27
2023-04-21T10:54:03.578Z,98881.73
2023-04-21T10:55:58.465Z,98892.34
2023-04-21T10:57:39.287Z,98885.00
2023-04-21T10:59:12.994Z,98882.56
2023-04-21T11:00:53.612Z,98879.35
2023-04-21T11:02:18.360Z,98881.75
2023-04-21T11:03:59.128Z,98882.62
2023-04-21T11:05:34.482Z,98876.83
2023-04-21T11:07:19.791Z,98874.16
2023-04-21T11:08:43.533Z,98875.89
2023-04-21T11:10:05.817Z,98876.73
2023-04-21T11:11:40.977Z,98875.73
2023-04-21T11:13:14.332Z,98875.36
2023-04-21T11:14:43.457Z,98871.50
2023-04-21T11:16:07.912Z,98871.91
2023-04-21T11:17:29.576Z,98871.34
2023-04-21T11:18:58.718Z,98867.28
2023-04-21T11:20:30.478Z,98865.99
2023-04-21T11:22:01.673Z,98859.52
2023-04-21T11:23:34.193Z,98861.45
2023-04-21T11:25:07.251Z,98859.01
2023-04-21T11:26:29.315Z,98860.45
2023-04-21T11:28:05.375Z,98855.31
2023-04-21T11:29:29.726Z,98848.41
2023-04-21T11:31:05.775Z,98854.14
2023-04-21T11:32:40.430Z,98851.77
2023-04-21T11:34:25.571Z,98849.30
2023-04-21T11:35:58.912Z,98844.45
2023-04-21T11:37:42.464Z,98846.35
2023-04-21T11:39:16.428Z,98846.27
2023-04-21T11:41:01.600Z,98846.54
2023-04-21T11:42:50.624Z,98844.14
2023-04-21T11:44:35.671Z,98844.73
2023-04-21T11:46:08.958Z,98844.11
2023-04-21T11:47:42.373Z,98844.86
2023-04-21T11:49:12.209Z,98837.80
2023-04-21T11:51:05.493Z,98842.23
2023-04-21T11:52:39.505Z,98838.75
2023-04-21T11:54:24.971Z,98831.27
2023-04-21T11:56:10.636Z,98833.02
2023-04-21T11:57:55.081Z,98830.56
2023-04-21T11:59:38.470Z,98831.88
2023-04-21T12:01:24.481Z,98829.98
2023-04-21T12:03:17.873Z,98828.30
2023-04-21T12:05:03.532Z,98824.33
2023-04-21T12:07:02.397Z,98823.05
2023-04-21T12:08:55.593Z,98825.17
2023-04-21T12:10:40.357Z,98823.33
2023-04-21T12:12:05.455Z,98823.14
2023-04-21T12:13:36.119Z,98823.56
2023-04-21T12:14:58.108Z,98815.48
2023-04-21T12:16:35.098Z,98817.63
2023-04-21T12:18:16.218Z,98817.44
2023-04-21T12:19:51.497Z,98795.89
2023-04-21T12:21:27.813Z,98808.41
2023-04-21T12:23:01.156Z,98803.44
2023-04-21T12:24:37.070Z,98805.67
2023-04-21T12:26:22.473Z,98792.33
2023-04-21T12:28:03.193Z,98802.80
2023-04-21T12:29:39.080Z,98809.63
2023-04-21T12:31:13.917Z,98805.73
2023-04-21T12:33:07.271Z,98800.88
2023-04-21T12:35:00.944Z,98791.57
2023-04-21T12:36:36.664Z,98790.74
2023-04-21T12:38:22.143Z,98786.43
2023-04-21T12:40:06.954Z,98792.03
2023-04-21T12:41:38.030Z,98789.19
2023-04-21T12:43:13.370Z,98778.29
2023-04-21T12:44:54.463Z,98787.82
2023-04-21T12:46:28.189Z,98789.00
2023-04-21T12:47:50.260Z,98791.96
2023-04-21T12:49:23.610Z,98790.42
2023-04-21T12:50:58.926Z,98785.75
2023-04-21T12:52:23.147Z,98786.38
2023-04-21T12:53:51.969Z,98787.81
2023-04-21T12:55:37.390Z,98784.83
2023-04-21T12:57:23.207Z,98776.38
2023-04-21T12:58:48.298Z,98778.05
2023-04-21T13:00:14.664Z,98773.44
2023-04-21T13:01:38.864Z,98773.38
2023-04-21T13:03:00.988Z,98777.77
2023-04-21T13:04:22.848Z,98777.35
2023-04-21T13:05:45.758Z,98782.85
2023-04-21T13:07:21.694Z,98774.71
2023-04-21T13:08:50.238Z,98774.67
2023-04-21T13:10:12.682Z,98771.19
2023-04-21T13:11:42.354Z,98773.17
2023-04-21T13:13:11.828Z,98770.70
2023-04-21T13:15:01.524Z,98768.14
2023-04-21T13:16:50.207Z,98767.23
2023-04-21T13:18:24.002Z,98754.14
2023-04-21T13:20:09.395Z,98765.21
2023-04-21T13:21:42.379Z,98764.45
2023-04-21T13:23:18.190Z,98758.14
2023-04-21T13:24:51.383Z,98756.72
2023-04-21T13:26:45.501Z,98759.36
2023-04-21T13:28:30.956Z,98756.58
2023-04-21T13:30:16.155Z,98751.60
2023-04-21T13:32:09.536Z,98756.02
2023-04-21T13:33:53.030Z,98748.76
2023-04-21T13:35:27.494Z,98750.66
2023-04-21T13:37:12.461Z,98744.98
2023-04-21T13:38:56.923Z,98733.94
2023-04-21T13:40:30.030Z,98744.96
2023-04-21T13:42:15.160Z,98740.05
2023-04-21T13:43:50.465Z,98737.33
2023-04-21T13:45:35.699Z,98740.11
2023-04-21T13:46:57.574Z,98733.63
2023-04-21T13:48:31.221Z,98732.10
2023-04-21T13:50:04.929Z,98732.48
2023-04-21T13:51:40.854Z,98729.60
2023-04-21T13:53:04.554Z,98724.16
2023-04-21T13:54:49.513Z,98720.66
2023-04-21T13:56:25.502Z,98712.06
2023-04-21T13:57:54.806Z,98718.64
2023-04-21T13:59:30.661Z,98705.47
2023-04-21T14:01:04.582Z,98712.42
2023-04-21T14:02:40.376Z,98707.13
2023-04-21T14:04:14.590Z,98706.95
2023-04-21T14:05:39.051Z,98708.38
2023-04-21T14:07:12.559Z,98702.67
2023-04-21T14:08:53.267Z,98697.53
2023-04-21T14:10:30.033Z,98703.08
2023-04-21T14:11:53.614Z,98706.71
2023-04-21T14:13:37.512Z,98701.23
2023-04-21T14:15:15.668Z,98702.34
2023-04-21T14:16:50.901Z,98702.21
2023-04-21T14:18:27.043Z,98700.52
2023-04-21T14:20:12.266Z,98699.23
2023-04-21T14:21:57.575Z,98698.73
2023-04-21T14:23:31.136Z,98697.73
2023-04-21T14:25:24.784Z,98698.58
2023-04-21T14:27:00.217Z,98697.41
2023-04-21T14:28:41.028Z,98699.98
2023-04-21T14:30:03.021Z,98698.23
2023-04-21T14:31:36.652Z,98696.13
2023-04-21T14:33:21.868Z,98693.73
2023-04-21T14:35:04.915Z,98690.02
2023-04-21T14:36:59.564Z,98689.99
2023-04-21T14:38:44.562Z,98686.17
2023-04-21T14:40:39.532Z,98686.45
2023-04-21T14:42:15.743Z,98678.48
2023-04-21T14:44:09.518Z,98680.25
2023-04-21T14:45:35.983Z,98678.34
2023-04-21T14:47:12.137Z,98677.88
2023-04-21T14:48:48.558Z,98673.98
2023-04-21T14:50:43.506Z,98679.11
2023-04-21T14:52:24.338Z,98675.86
2023-04-21T14:54:05.625Z,98679.98
2023-04-21T14:55:41.351Z,98670.82
2023-04-21T14:57:27.103Z,98665.34
2023-04-21T14:59:10.974Z,98669.48
2023-04-21T15:00:53.574Z,98666.86
2023-04-21T15:02:48.599Z,98667.46
2023-04-21T15:04:43.623Z,98671.77
2023-04-21T15:06:34.107Z,98659.85
2023-04-21T15:08:15.131Z,98659.38
2023-04-21T15:09:48.546Z,98656.71
2023-04-21T15:11:41.761Z,98656.09
2023-04-21T15:13:15.500Z,98652.86
2023-04-21T15:15:00.367Z,98650.23
2023-04-21T15:16:45.490Z,98648.65
2023-04-21T15:18:19.280Z,98646.78
2023-04-21T15:19:54.534Z,98648.02
2023-04-21T15:21:27.855Z,98646.45
2023-04-21T15:23:12.971Z,98645.91
2023-04-21T15:24:56.579Z,98643.36
2023-04-21T15:26:30.177Z,98638.86
2023-04-21T15:28:15.306Z,98638.54
2023-04-21T15:29:50.749Z,98635.04
2023-04-21T15:31:24.540Z,98637.11
2023-04-21T15:33:09.742Z,98639.83
2023-04-21T15:36:54.817Z,98637.56
2023-04-21T15:38:26.532Z,98637.82
2023-04-21T15:40:02.007Z,98638.06
2023-04-21T15:41:35.138Z,98632.70
2023-04-21T15:43:08.668Z,98632.05
2023-04-21T15:44:30.816Z,98631.75
2023-04-21T15:46:00.006Z,98627.41
2023-04-21T15:47:24.731Z,98625.80
2023-04-21T15:48:48.550Z,98627.66
2023-04-21T15:50:25.075Z,98626.03
2023-04-21T15:52:06.142Z,98624.64
2023-04-21T15:53:47.111Z,98624.59
2023-04-21T15:55:21.283Z,98628.86
2023-04-21T15:56:52.492Z,98625.52
2023-04-21T15:58:17.124Z,98620.46
2023-04-21T15:59:40.585Z,98623.41
2023-04-21T16:01:25.698Z,98619.59
2023-04-21T16:02:55.091Z,98618.92
2023-04-21T16:04:19.656Z,98620.95
2023-04-21T16:06:00.919Z,98616.84
2023-04-21T16:07:25.352Z,98618.18
2023-04-21T16:08:49.070Z,98613.36
2023-04-21T16:10:43.557Z,98611.83
2023-04-21T16:12:17.250Z,98608.85
2023-04-21T16:13:52.750Z,98602.69
2023-04-21T16:15:46.519Z,98602.19
2023-04-21T16:17:27.748Z,98604.20
2023-04-21T16:19:12.962Z,98604.10
2023-04-21T16:20:53.846Z,98602.06
2023-04-21T16:22:30.061Z,98602.18
2023-04-21T16:24:14.989Z,98601.91
2023-04-21T16:25:51.524Z,98599.91
2023-04-21T16:27:25.522Z,98604.51
2023-04-21T16:29:10.735Z,98601.67
2023-04-21T16:30:43.343Z,98604.29
2023-04-21T16:32:17.162Z,98600.45
2023-04-21T16:34:06.174Z,98599.74
2023-04-21T16:35:42.107Z,98597.11
2023-04-21T16:37:04.040Z,98598.09
2023-04-21T16:38:39.689Z,98599.55
2023-04-21T16:40:13.657Z,98603.60
2023-04-21T16:41:58.825Z,98602.89
2023-04-21T16:43:43.725Z,98600.34
2023-04-21T16:45:17.591Z,98599.45
2023-04-21T16:46:53.076Z,98598.79
2023-04-21T16:48:18.102Z,98597.94
2023-04-21T16:50:11.370Z,98593.02
2023-04-21T16:51:52.007Z,98592.21
2023-04-21T16:53:33.001Z,98588.57
2023-04-21T16:55:09.891Z,98591.16
2023-04-21T16:56:45.764Z,98566.77
2023-04-21T16:58:07.668Z,98591.79
2023-04-21T16:59:38.911Z,98593.48
2023-04-21T17:01:20.645Z,98598.20
2023-04-21T17:03:01.518Z,98597.34
2023-04-21T17:04:37.721Z,98594.50
2023-04-21T17:06:09.567Z,98597.11
2023-04-21T17:07:49.313Z,98595.17
2023-04-21T17:09:39.525Z,98586.16
2023-04-21T17:11:21.082Z,98593.54
2023-04-21T17:12:56.862Z,98593.07
2023-04-21T17:14:37.847Z,98591.86
2023-04-21T17:16:11.959Z,98589.62
2023-04-21T17:17:47.229Z,98577.45
2023-04-21T17:19:28.588Z,98587.72
2023-04-21T17:21:14.152Z,98587.03
2023-04-21T17:22:45.286Z,98590.80
2023-04-21T17:24:18.993Z,98591.52
2023-04-21T17:26:03.825Z,98590.35
2023-04-21T17:27:58.523Z,98590.05
2023-04-21T17:29:20.599Z,98590.67
2023-04-21T17:31:15.632Z,98588.58
2023-04-21T17:33:00.571Z,98589.55
2023-04-21T17:34:33.667Z,98594.25
2023-04-21T17:36:19.068Z,98591.24
2023-04-21T17:37:42.773Z,98597.27
2023-04-21T17:39:04.441Z,98592.94
2023-04-21T17:40:38.007Z,98593.58
2023-04-21T17:42:13.394Z,98592.18
2023-04-21T17:43:56.559Z,98592.35
2023-04-21T17:45:40.983Z,98591.66
2023-04-21T17:47:10.313Z,98592.66
2023-04-21T17:48:34.403Z,98593.28
2023-04-21T17:50:09.922Z,98596.05
2023-04-21T17:51:43.063Z,98593.70
2023-04-21T17:53:19.512Z,98595.27
2023-04-21T17:54:53.541Z,98582.79
2023-04-21T17:56:38.848Z,98595.73
2023-04-21T17:58:00.241Z,98594.05
2023-04-21T17:59:45.325Z,98596.45
2023-04-21T18:01:21.793Z,98595.16
2023-04-21T18:02:55.211Z,98596.77
2023-04-21T18:04:30.697Z,98593.81
2023-04-21T18:06:16.477Z,98600.48
2023-04-21T18:07:51.471Z,98599.02
2023-04-21T18:09:37.129Z,98602.23
2023-04-21T18:11:23.128Z,98600.27
2023-04-21T18:12:44.416Z,98604.79
2023-04-21T18:14:40.663Z,98603.10
2023-04-21T18:16:26.121Z,98587.25
2023-04-21T18:18:00.060Z,98606.20
2023-04-21T18:19:35.803Z,98605.94
2023-04-21T18:20:59.624Z,98606.11
2023-04-21T18:22:51.877Z,98605.23
2023-04-21T18:24:46.555Z,98606.20
2023-04-21T18:26:20.737Z,98602.77
2023-04-21T18:27:56.089Z,98609.84
2023-04-21T18:29:51.554Z,98607.09
2023-04-21T18:31:37.783Z,98608.73
2023-04-21T18:33:23.126Z,98610.61
2023-04-21T18:34:59.230Z,98610.80
2023-04-21T18:36:31.580Z,98603.27
2023-04-21T18:38:15.643Z,98607.64
2023-04-21T18:39:44.484Z,98604.40
2023-04-21T18:43:32.633Z,98606.95
2023-04-21T18:45:18.056Z,98604.80
2023-04-21T18:47:11.336Z,98604.14
2023-04-21T18:48:53.457Z,98600.40
2023-04-21T18:50:50.565Z,98602.88
2023-04-21T18:52:37.073Z,98602.90
2023-04-21T18:54:18.593Z,98598.77
2023-04-21T18:55:57.248Z,98597.02
2023-04-21T18:57:33.043Z,98597.13
2023-04-21T18:59:17.710Z,98597.41
2023-04-21T19:00:49.673Z,98596.64
2023-04-21T19:02:16.189Z,98596.52
2023-04-21T19:04:01.123Z,98592.62
2023-04-21T19:05:50.640Z,98593.52
2023-04-21T19:07:24.176Z,98591.23
2023-04-21T19:08:57.740Z,98587.96
2023-04-21T19:10:31.036Z,98596.67
2023-04-21T19:12:10.032Z,98594.63
2023-04-21T19:16:10.627Z,98594.73
2023-04-21T19:17:46.344Z,98596.94
2023-04-21T19:19:17.945Z,98596.98